createdAt,value
2023-05-04T00:00:26.231Z,23.73
2023-05-04T00:01:26.323Z,23.72
2023-05-04T00:02:26.496Z,23.73
2023-05-04T00:03:26.656Z,23.73
2023-05-04T00:04:26.646Z,23.72
2023-05-04T00:05:26.692Z,23.73
2023-05-04T00:06:26.776Z,23.74
2023-05-04T00:07:26.870Z,23.72
2023-05-04T00:08:26.960Z,23.70
2023-05-04T00:09:27.035Z,23.72
2023-05-04T00:10:27.132Z,23.72
2023-05-04T00:11:27.218Z,23.72
2023-05-04T00:12:27.349Z,23.72
2023-05-04T00:13:27.419Z,23.70
2023-05-04T00:14:27.497Z,23.72
2023-05-04T00:15:27.586Z,23.70
2023-05-04T00:16:27.746Z,23.69
2023-05-04T00:17:27.762Z,23.72
2023-05-04T00:18:27.859Z,23.72
2023-05-04T00:19:27.947Z,23.73
2023-05-04T00:20:28.053Z,23.70
2023-05-04T00:21:28.118Z,23.72
2023-05-04T00:22:28.219Z,23.69
2023-05-04T00:23:28.302Z,23.70
2023-05-04T00:24:28.388Z,23.70
2023-05-04T00:25:29.203Z,23.70
2023-05-04T00:26:28.584Z,23.69
2023-05-04T00:27:28.660Z,23.66
2023-05-04T00:28:28.753Z,23.66
2023-05-04T00:29:28.845Z,23.69
2023-05-04T00:30:28.940Z,23.66
2023-05-04T00:31:29.124Z,23.67
2023-05-04T00:32:29.131Z,23.66
2023-05-04T00:33:29.233Z,23.69
2023-05-04T00:34:29.300Z,23.66
2023-05-04T00:35:29.412Z,23.66
2023-05-04T00:36:29.475Z,23.69
2023-05-04T00:37:29.581Z,23.67
2023-05-04T00:38:29.658Z,23.67
2023-05-04T00:39:29.750Z,23.64
2023-05-04T00:40:29.839Z,23.64
2023-05-04T00:41:29.950Z,23.69
2023-05-04T00:42:30.033Z,23.67
2023-05-04T00:43:30.120Z,23.66
2023-05-04T00:44:30.241Z,23.66
2023-05-04T00:45:30.326Z,23.66
2023-05-04T00:46:30.480Z,23.67
2023-05-04T00:47:30.521Z,23.66
2023-05-04T00:48:30.589Z,23.64
2023-05-04T00:49:31.205Z,23.67
2023-05-04T00:50:30.770Z,23.64
2023-05-04T00:51:30.860Z,23.64
2023-05-04T00:52:30.959Z,23.66
2023-05-04T00:53:31.052Z,23.67
2023-05-04T00:54:31.707Z,23.66
2023-05-04T00:55:31.247Z,23.64
2023-05-04T00:56:31.340Z,23.66
2023-05-04T00:57:31.433Z,23.62
2023-05-04T00:58:31.524Z,23.63
2023-05-04T00:59:31.630Z,23.66
2023-05-04T01:00:31.735Z,23.63
2023-05-04T01:01:31.926Z,23.63
2023-05-04T01:02:31.964Z,23.64
2023-05-04T01:03:32.096Z,23.63
2023-05-04T01:04:32.715Z,23.66
2023-05-04T01:05:32.222Z,23.63
2023-05-04T01:06:32.320Z,23.63
2023-05-04T01:07:32.723Z,23.62
2023-05-04T01:08:32.518Z,23.62
2023-05-04T01:09:32.614Z,23.63
2023-05-04T01:10:32.711Z,23.60
2023-05-04T01:11:32.815Z,23.59
2023-05-04T01:12:32.924Z,23.60
2023-05-04T01:13:33.007Z,23.59
2023-05-04T01:14:33.113Z,23.59
2023-05-04T01:15:33.208Z,23.62
2023-05-04T01:16:33.349Z,23.60
2023-05-04T01:17:33.423Z,23.60
2023-05-04T01:18:33.521Z,23.59
2023-05-04T01:19:33.632Z,23.59
2023-05-04T01:20:33.769Z,23.62
2023-05-04T01:21:33.826Z,23.59
2023-05-04T01:22:33.961Z,23.59
2023-05-04T01:23:34.061Z,23.57
2023-05-04T01:24:34.151Z,23.60
2023-05-04T01:25:34.258Z,23.57
2023-05-04T01:26:34.421Z,23.55
2023-05-04T01:27:34.471Z,23.57
2023-05-04T01:28:34.644Z,23.56
2023-05-04T01:29:34.691Z,23.56
2023-05-04T01:30:34.794Z,23.56
2023-05-04T01:31:34.898Z,23.55
2023-05-04T01:32:35.049Z,23.56
2023-05-04T01:33:35.106Z,23.56
2023-05-04T01:34:35.206Z,23.56
2023-05-04T01:35:35.310Z,23.56
2023-05-04T01:36:35.462Z,23.56
2023-05-04T01:37:35.590Z,23.55
2023-05-04T01:38:35.698Z,23.55
2023-05-04T01:39:35.728Z,23.53
2023-05-04T01:40:35.821Z,23.57
2023-05-04T01:41:35.920Z,23.55
2023-05-04T01:42:36.033Z,23.55
2023-05-04T01:43:36.123Z,23.56
2023-05-04T01:44:36.241Z,23.56
2023-05-04T01:45:36.352Z,23.53
2023-05-04T01:46:36.522Z,23.53
2023-05-04T01:47:36.639Z,23.50
2023-05-04T01:48:36.655Z,23.50
2023-05-04T01:49:36.765Z,23.50
2023-05-04T01:50:36.867Z,23.49
2023-05-04T01:51:36.960Z,23.52
2023-05-04T01:52:37.057Z,23.50
2023-05-04T01:53:37.164Z,23.50
2023-05-04T01:54:37.280Z,23.50
2023-05-04T01:55:37.431Z,23.52
2023-05-04T01:56:37.549Z,23.49
2023-05-04T01:57:37.738Z,23.50
2023-05-04T01:58:37.682Z,23.48
2023-05-04T01:59:37.873Z,23.49
2023-05-04T02:00:37.895Z,23.48
2023-05-04T02:01:38.781Z,23.46
2023-05-04T02:02:38.136Z,23.50
2023-05-04T02:03:38.846Z,23.49
2023-05-04T02:04:38.316Z,23.50
2023-05-04T02:05:38.425Z,23.52
2023-05-04T02:06:38.558Z,23.50
2023-05-04T02:07:38.635Z,23.49
2023-05-04T02:08:38.743Z,23.50
2023-05-04T02:09:38.901Z,23.50
2023-05-04T02:10:39.006Z,23.50
2023-05-04T02:11:39.072Z,23.49
2023-05-04T02:12:39.318Z,23.50
2023-05-04T02:13:39.268Z,23.49
2023-05-04T02:14:39.396Z,23.48
2023-05-04T02:15:39.516Z,23.50
2023-05-04T02:16:39.784Z,23.48
2023-05-04T02:17:39.766Z,23.49
2023-05-04T02:18:39.884Z,23.49
2023-05-04T02:19:39.972Z,23.50
2023-05-04T02:20:40.047Z,23.49
2023-05-04T02:21:40.171Z,23.48
2023-05-04T02:22:40.320Z,23.49
2023-05-04T02:23:40.394Z,23.48
2023-05-04T02:24:40.489Z,23.52
2023-05-04T02:25:40.609Z,23.49
2023-05-04T02:26:40.727Z,23.49
2023-05-04T02:27:40.835Z,23.48
2023-05-04T02:28:40.939Z,23.48
2023-05-04T02:29:41.022Z,23.49
2023-05-04T02:30:41.128Z,23.49
2023-05-04T02:31:41.293Z,23.49
2023-05-04T02:32:41.362Z,23.49
2023-05-04T02:33:41.444Z,23.48
2023-05-04T02:34:41.559Z,23.49
2023-05-04T02:35:41.655Z,23.49
2023-05-04T02:36:41.776Z,23.49
2023-05-04T02:37:41.877Z,23.50
2023-05-04T02:38:41.967Z,23.49
2023-05-04T02:39:42.750Z,23.48
2023-05-04T02:40:42.186Z,23.45
2023-05-04T02:41:42.303Z,23.50
2023-05-04T02:42:42.389Z,23.48
2023-05-04T02:43:42.495Z,23.46
2023-05-04T02:44:42.604Z,23.48
2023-05-04T02:45:42.785Z,23.46
2023-05-04T02:46:43.749Z,23.48
2023-05-04T02:47:43.005Z,23.46
2023-05-04T02:48:43.049Z,23.45
2023-05-04T02:49:43.149Z,23.45
2023-05-04T02:50:43.257Z,23.46
2023-05-04T02:51:43.367Z,23.45
2023-05-04T02:52:43.473Z,23.46
2023-05-04T02:53:44.257Z,23.45
2023-05-04T02:54:43.656Z,23.45
2023-05-04T02:55:43.774Z,23.46
2023-05-04T02:56:43.885Z,23.45
2023-05-04T02:57:43.998Z,23.45
2023-05-04T02:58:44.101Z,23.48
2023-05-04T02:59:44.209Z,23.45
2023-05-04T03:00:44.304Z,23.42
2023-05-04T03:01:44.408Z,23.43
2023-05-04T03:02:44.562Z,23.45
2023-05-04T03:03:44.589Z,23.45
2023-05-04T03:04:44.727Z,23.43
2023-05-04T03:05:44.713Z,23.45
2023-05-04T03:06:44.798Z,23.43
2023-05-04T03:07:44.879Z,23.43
2023-05-04T03:08:44.996Z,23.43
2023-05-04T03:09:47.530Z,23.43
2023-05-04T03:10:45.117Z,23.42
2023-05-04T03:11:45.161Z,23.42
2023-05-04T03:12:45.316Z,23.43
2023-05-04T03:13:45.224Z,23.42
2023-05-04T03:14:45.262Z,23.39
2023-05-04T03:15:45.363Z,23.42
2023-05-04T03:16:45.350Z,23.41
2023-05-04T03:17:45.457Z,23.39
2023-05-04T03:18:45.778Z,23.39
2023-05-04T03:19:45.450Z,23.42
2023-05-04T03:20:45.496Z,23.39
2023-05-04T03:21:45.530Z,23.41
2023-05-04T03:22:45.580Z,23.41
2023-05-04T03:23:45.777Z,23.42
2023-05-04T03:24:45.657Z,23.41
2023-05-04T03:25:45.703Z,23.41
2023-05-04T03:26:45.741Z,23.39
2023-05-04T03:27:45.778Z,23.39
2023-05-04T03:28:45.814Z,23.39
2023-05-04T03:29:45.893Z,23.39
2023-05-04T03:30:45.898Z,23.41
2023-05-04T03:31:46.165Z,23.41
2023-05-04T03:32:46.044Z,23.39
2023-05-04T03:33:46.018Z,23.41
2023-05-04T03:34:46.075Z,23.38
2023-05-04T03:35:46.098Z,23.38
2023-05-04T03:36:46.134Z,23.38
2023-05-04T03:37:46.179Z,23.38
2023-05-04T03:38:46.214Z,23.38
2023-05-04T03:39:46.262Z,23.38
2023-05-04T03:40:46.298Z,23.38
2023-05-04T03:41:46.340Z,23.35
2023-05-04T03:42:46.785Z,23.39
2023-05-04T03:43:46.437Z,23.38
2023-05-04T03:44:46.471Z,23.36
2023-05-04T03:45:46.570Z,23.36
2023-05-04T03:46:46.560Z,23.38
2023-05-04T03:47:46.648Z,23.39
2023-05-04T03:48:46.649Z,23.36
2023-05-04T03:49:46.694Z,23.36
2023-05-04T03:50:46.724Z,23.36
2023-05-04T03:51:46.759Z,23.36
2023-05-04T03:52:46.809Z,23.35
2023-05-04T03:53:46.866Z,23.32
2023-05-04T03:54:46.886Z,23.36
2023-05-04T03:55:46.937Z,23.33
2023-05-04T03:56:46.969Z,23.33
2023-05-04T03:57:47.061Z,23.35
2023-05-04T03:58:47.145Z,23.33
2023-05-04T03:59:47.242Z,23.33
2023-05-04T04:00:47.328Z,23.35
2023-05-04T04:01:47.440Z,23.33
2023-05-04T04:02:47.614Z,23.30
2023-05-04T04:03:47.680Z,23.33
2023-05-04T04:04:47.725Z,23.30
2023-05-04T04:05:47.780Z,23.33
2023-05-04T04:06:47.838Z,23.32
2023-05-04T04:07:47.921Z,23.30
2023-05-04T04:08:48.853Z,23.32
2023-05-04T04:09:48.070Z,23.30
2023-05-04T04:10:48.123Z,23.32
2023-05-04T04:11:48.204Z,23.32
2023-05-04T04:12:48.300Z,23.30
2023-05-04T04:13:48.357Z,23.30
2023-05-04T04:14:48.426Z,23.32
2023-05-04T04:15:48.535Z,23.30
2023-05-04T04:16:48.659Z,23.30
2023-05-04T04:17:48.857Z,23.32
2023-05-04T04:18:48.740Z,23.30
2023-05-04T04:19:48.825Z,23.30
2023-05-04T04:20:48.888Z,23.29
2023-05-04T04:21:48.952Z,23.29
2023-05-04T04:22:49.000Z,23.29
2023-05-04T04:23:49.053Z,23.30
2023-05-04T04:24:49.105Z,23.28
2023-05-04T04:25:49.189Z,23.30
2023-05-04T04:26:49.263Z,23.29
2023-05-04T04:27:49.364Z,23.28
2023-05-04T04:28:49.419Z,23.29
2023-05-04T04:29:49.501Z,23.28
2023-05-04T04:30:49.563Z,23.29
2023-05-04T04:31:49.651Z,23.28
2023-05-04T04:32:49.779Z,23.28
2023-05-04T04:33:49.743Z,23.28
2023-05-04T04:34:49.826Z,23.25
2023-05-04T04:35:49.998Z,23.26
2023-05-04T04:36:49.955Z,23.26
2023-05-04T04:37:50.018Z,23.25
2023-05-04T04:38:50.812Z,23.25
2023-05-04T04:39:50.193Z,23.25
2023-05-04T04:40:50.322Z,23.25
2023-05-04T04:41:50.365Z,23.26
2023-05-04T04:42:50.809Z,23.25
2023-05-04T04:43:50.507Z,23.23
2023-05-04T04:44:50.555Z,23.25
2023-05-04T04:45:50.620Z,23.23
2023-05-04T04:46:50.716Z,23.25
2023-05-04T04:47:50.844Z,23.22
2023-05-04T04:48:50.756Z,23.23
2023-05-04T04:49:50.804Z,23.23
2023-05-04T04:50:50.858Z,23.23
2023-05-04T04:51:50.927Z,23.23
2023-05-04T04:52:50.968Z,23.23
2023-05-04T04:53:51.018Z,23.22
2023-05-04T04:54:51.173Z,23.21
2023-05-04T04:55:51.138Z,23.21
2023-05-04T04:56:51.222Z,23.19
2023-05-04T04:57:51.284Z,23.21
2023-05-04T04:58:51.338Z,23.21
2023-05-04T04:59:51.392Z,23.21
2023-05-04T05:00:51.530Z,23.19
2023-05-04T05:01:51.515Z,23.23
2023-05-04T05:02:51.615Z,23.21
2023-05-04T05:03:51.697Z,23.18
2023-05-04T05:04:51.769Z,23.21
2023-05-04T05:05:51.698Z,23.21
2023-05-04T05:06:51.740Z,23.21
2023-05-04T05:07:51.802Z,23.21
2023-05-04T05:08:51.842Z,23.21
2023-05-04T05:09:51.894Z,23.18
2023-05-04T05:10:51.958Z,23.18
2023-05-04T05:11:51.990Z,23.18
2023-05-04T05:12:52.075Z,23.18
2023-05-04T05:13:52.100Z,23.18
2023-05-04T05:14:52.218Z,23.15
2023-05-04T05:15:52.213Z,23.16
2023-05-04T05:16:52.310Z,23.16
2023-05-04T05:17:52.318Z,23.15
2023-05-04T05:18:52.354Z,23.15
2023-05-04T05:19:52.407Z,23.11
2023-05-04T05:20:52.481Z,23.09
2023-05-04T05:21:52.772Z,23.08
2023-05-04T05:22:52.569Z,23.07
2023-05-04T05:23:52.697Z,23.02
2023-05-04T05:24:52.703Z,23.05
2023-05-04T05:25:52.805Z,23.04
2023-05-04T05:26:52.802Z,23.02
2023-05-04T05:27:52.899Z,22.99
2023-05-04T05:28:53.012Z,22.94
2023-05-04T05:29:53.100Z,23.02
2023-05-04T05:30:53.262Z,23.04
2023-05-04T05:31:53.304Z,23.02
2023-05-04T05:32:53.523Z,23.04
2023-05-04T05:33:53.586Z,22.98
2023-05-04T05:34:53.593Z,22.98
2023-05-04T05:35:53.661Z,22.98
2023-05-04T05:36:53.696Z,22.97
2023-05-04T05:37:53.765Z,22.95
2023-05-04T05:38:53.792Z,22.99
2023-05-04T05:39:53.869Z,22.97
2023-05-04T05:40:53.889Z,22.98
2023-05-04T05:41:53.913Z,22.99
2023-05-04T05:42:53.950Z,22.99
2023-05-04T05:43:53.975Z,22.98
2023-05-04T05:44:54.009Z,22.98
2023-05-04T05:45:54.083Z,22.99
2023-05-04T05:46:54.139Z,23.02
2023-05-04T05:47:54.188Z,23.02
2023-05-04T05:48:54.150Z,23.05
2023-05-04T05:49:54.207Z,23.04
2023-05-04T05:50:54.258Z,23.04
2023-05-04T05:51:54.312Z,23.08
2023-05-04T05:52:54.368Z,23.08
2023-05-04T05:53:54.407Z,23.02
2023-05-04T05:54:54.534Z,23.05
2023-05-04T05:55:54.540Z,23.08
2023-05-04T05:56:54.637Z,23.08
2023-05-04T05:57:54.692Z,23.09
2023-05-04T05:58:54.861Z,23.09
2023-05-04T05:59:54.859Z,23.11
2023-05-04T06:00:55.835Z,23.09
2023-05-04T06:01:55.044Z,23.11
2023-05-04T06:02:55.225Z,23.11
2023-05-04T06:03:55.416Z,23.09
2023-05-04T06:04:55.364Z,23.11
2023-05-04T06:05:55.403Z,23.14
2023-05-04T06:06:56.400Z,23.18
2023-05-04T06:07:55.542Z,23.16
2023-05-04T06:08:55.619Z,23.15
2023-05-04T06:09:55.705Z,23.18
2023-05-04T06:10:55.789Z,23.21
2023-05-04T06:11:55.895Z,23.22
2023-05-04T06:12:55.978Z,23.23
2023-05-04T06:13:56.974Z,23.26
2023-05-04T06:14:55.974Z,23.29
2023-05-04T06:15:56.041Z,23.30
2023-05-04T06:16:56.012Z,23.32
2023-05-04T06:17:56.361Z,23.32
2023-05-04T06:18:56.053Z,23.33
2023-05-04T06:19:56.069Z,23.35
2023-05-04T06:20:56.151Z,23.38
2023-05-04T06:21:56.111Z,23.42
2023-05-04T06:22:56.175Z,23.46
2023-05-04T06:23:56.254Z,23.50
2023-05-04T06:25:01.566Z,23.49
2023-05-04T06:25:58.364Z,23.56
2023-05-04T06:26:56.408Z,23.56
2023-05-04T06:27:56.855Z,23.60
2023-05-04T06:28:56.422Z,23.63
2023-05-04T06:29:56.441Z,23.64
2023-05-04T06:30:56.461Z,23.62
2023-05-04T06:31:56.492Z,23.69
2023-05-04T06:32:56.523Z,23.64
2023-05-04T06:33:56.515Z,23.70
2023-05-04T06:34:56.587Z,23.63
2023-05-04T06:35:56.637Z,23.69
2023-05-04T06:36:56.678Z,23.69
2023-05-04T06:37:56.757Z,23.72
2023-05-04T06:38:56.800Z,23.76
2023-05-04T06:39:56.857Z,23.76
2023-05-04T06:40:56.911Z,23.74
2023-05-04T06:41:56.978Z,23.76
2023-05-04T06:42:57.035Z,23.77
2023-05-04T06:43:58.775Z,23.77
2023-05-04T06:44:57.140Z,23.80
2023-05-04T06:45:57.273Z,23.79
2023-05-04T06:46:57.257Z,23.80
2023-05-04T06:47:57.348Z,23.77
2023-05-04T06:48:57.370Z,23.77
2023-05-04T06:49:57.400Z,23.76
2023-05-04T06:50:57.444Z,23.77
2023-05-04T06:51:57.503Z,23.76
2023-05-04T06:52:57.542Z,23.80
2023-05-04T06:53:57.586Z,23.80
2023-05-04T06:54:57.660Z,23.77
2023-05-04T06:55:57.677Z,23.76
2023-05-04T06:56:57.736Z,23.77
2023-05-04T06:57:57.767Z,23.80
2023-05-04T06:58:57.853Z,23.80
2023-05-04T06:59:57.883Z,23.79
2023-05-04T07:00:57.940Z,23.77
2023-05-04T07:01:57.939Z,23.79
2023-05-04T07:02:57.992Z,23.83
2023-05-04T07:03:58.058Z,23.80
2023-05-04T07:04:58.085Z,23.81
2023-05-04T07:05:58.105Z,23.83
2023-05-04T07:06:58.158Z,23.83
2023-05-04T07:07:58.185Z,23.90
2023-05-04T07:08:58.264Z,23.91
2023-05-04T07:09:58.342Z,23.91
2023-05-04T07:10:58.405Z,23.74
2023-05-04T07:11:58.555Z,23.57
2023-05-04T07:12:58.589Z,23.48
2023-05-04T07:13:59.288Z,23.39
2023-05-04T07:14:58.767Z,23.36
2023-05-04T07:15:58.926Z,23.38
2023-05-04T07:16:58.975Z,23.38
2023-05-04T07:17:59.122Z,23.41
2023-05-04T07:18:59.156Z,23.48
2023-05-04T07:19:59.232Z,23.52
2023-05-04T07:21:16.154Z,23.57
2023-05-04T07:22:00.456Z,23.55
2023-05-04T07:22:59.361Z,23.62
2023-05-04T07:23:59.403Z,23.64
2023-05-04T07:25:01.426Z,23.64
2023-05-04T07:25:59.459Z,23.66
2023-05-04T07:26:59.484Z,23.64
2023-05-04T07:28:01.298Z,23.63
2023-05-04T07:28:59.550Z,23.64
2023-05-04T07:29:59.568Z,23.64
2023-05-04T07:30:59.602Z,23.66
2023-05-04T07:31:59.640Z,23.66
2023-05-04T07:32:59.743Z,23.70
2023-05-04T07:33:59.655Z,23.67
2023-05-04T07:34:59.676Z,23.64
2023-05-04T07:35:59.714Z,23.64
2023-05-04T07:36:59.809Z,23.66
2023-05-04T07:37:59.883Z,23.64
2023-05-04T07:38:59.959Z,23.67
2023-05-04T07:40:00.021Z,23.64
2023-05-04T07:41:00.087Z,23.64
2023-05-04T07:42:00.153Z,23.64
2023-05-04T07:43:00.225Z,23.62
2023-05-04T07:44:00.271Z,23.63
2023-05-04T07:45:00.349Z,23.64
2023-05-04T07:46:00.468Z,23.62
2023-05-04T07:47:00.465Z,23.60
2023-05-04T07:48:00.732Z,23.62
2023-05-04T07:49:00.577Z,23.60
2023-05-04T07:50:00.643Z,23.62
2023-05-04T07:51:00.708Z,23.63
2023-05-04T07:52:00.767Z,23.69
2023-05-04T07:53:00.821Z,23.70
2023-05-04T07:54:00.896Z,23.72
2023-05-04T07:55:01.000Z,23.76
2023-05-04T07:56:02.917Z,23.76
2023-05-04T07:57:01.077Z,23.74
2023-05-04T07:58:01.160Z,23.79
2023-05-04T07:59:01.244Z,23.77
2023-05-04T08:00:01.419Z,23.79
2023-05-04T08:01:01.350Z,23.77
2023-05-04T08:02:01.502Z,23.76
2023-05-04T08:03:01.640Z,23.77
2023-05-04T08:04:01.576Z,23.74
2023-05-04T08:05:01.640Z,23.74
2023-05-04T08:06:01.712Z,23.77
2023-05-04T08:07:01.781Z,23.79
2023-05-04T08:08:02.814Z,23.79
2023-05-04T08:09:01.918Z,23.77
2023-05-04T08:10:02.188Z,23.80
2023-05-04T08:11:12.319Z,23.84
2023-05-04T08:12:03.091Z,23.87
2023-05-04T08:13:02.135Z,23.88
2023-05-04T08:14:02.127Z,23.88
2023-05-04T08:15:02.275Z,23.79
2023-05-04T08:16:02.176Z,23.69
2023-05-04T08:17:02.207Z,23.66
2023-05-04T08:18:02.292Z,23.55
2023-05-04T08:19:02.276Z,23.43
2023-05-04T08:20:02.330Z,23.25
2023-05-04T08:21:02.369Z,23.14
2023-05-04T08:22:02.536Z,22.99
2023-05-04T08:23:02.461Z,22.91
2023-05-04T08:24:02.513Z,22.94
2023-05-04T08:25:02.662Z,22.98
2023-05-04T08:26:02.639Z,23.01
2023-05-04T08:27:07.921Z,23.02
2023-05-04T08:28:03.736Z,23.07
2023-05-04T08:29:02.773Z,23.14
2023-05-04T08:30:02.829Z,23.16
2023-05-04T08:31:03.393Z,23.22
2023-05-04T08:32:02.924Z,23.25
2023-05-04T08:33:02.982Z,23.26
2023-05-04T08:34:02.991Z,23.29
2023-05-04T08:35:03.163Z,23.32
2023-05-04T08:36:03.101Z,23.32
2023-05-04T08:37:03.143Z,23.33
2023-05-04T08:38:03.253Z,23.33
2023-05-04T08:39:03.905Z,23.38
2023-05-04T08:40:03.442Z,23.41
2023-05-04T08:41:03.533Z,23.39
2023-05-04T08:42:03.690Z,23.42
2023-05-04T08:43:03.748Z,23.42
2023-05-04T08:44:03.861Z,23.42
2023-05-04T08:45:04.147Z,23.43
2023-05-04T08:46:04.217Z,23.49
2023-05-04T08:47:04.135Z,23.48
2023-05-04T08:48:04.255Z,23.48
2023-05-04T08:49:04.289Z,23.52
2023-05-04T08:50:04.358Z,23.48
2023-05-04T08:51:05.409Z,23.50
2023-05-04T08:52:04.677Z,23.50
2023-05-04T08:53:05.402Z,23.53
2023-05-04T08:54:04.667Z,23.48
2023-05-04T08:55:04.970Z,23.52
2023-05-04T08:56:04.817Z,23.50
2023-05-04T08:57:04.845Z,23.50
2023-05-04T08:58:04.921Z,23.56
2023-05-04T08:59:04.983Z,23.56
2023-05-04T09:00:05.030Z,23.56
2023-05-04T09:01:05.154Z,23.57
2023-05-04T09:02:05.187Z,23.57
2023-05-04T09:03:05.245Z,23.60
2023-05-04T09:04:05.384Z,23.59
2023-05-04T09:05:05.503Z,23.62
2023-05-04T09:06:05.369Z,23.63
2023-05-04T09:07:05.417Z,23.63
2023-05-04T09:08:05.468Z,23.63
2023-05-04T09:09:05.517Z,23.63
2023-05-04T09:10:05.551Z,23.70
2023-05-04T09:11:05.634Z,23.70
2023-05-04T09:12:05.650Z,23.70
2023-05-04T09:13:05.719Z,23.64
2023-05-04T09:14:05.710Z,23.66
2023-05-04T09:15:06.056Z,23.73
2023-05-04T09:16:05.774Z,23.69
2023-05-04T09:17:05.906Z,23.66
2023-05-04T09:18:05.972Z,23.66
2023-05-04T09:19:06.005Z,23.62
2023-05-04T09:20:06.010Z,23.60
2023-05-04T09:21:06.076Z,23.60
2023-05-04T09:22:06.132Z,23.57
2023-05-04T09:23:06.216Z,23.52
2023-05-04T09:24:06.391Z,23.50
2023-05-04T09:25:06.489Z,23.49
2023-05-04T09:26:07.345Z,23.42
2023-05-04T09:27:06.428Z,23.45
2023-05-04T09:28:07.415Z,23.42
2023-05-04T09:29:06.539Z,23.41
2023-05-04T09:30:07.430Z,23.41
2023-05-04T09:31:07.470Z,23.38
2023-05-04T09:32:06.680Z,23.33
2023-05-04T09:33:06.733Z,23.35
2023-05-04T09:34:06.760Z,23.33
2023-05-04T09:35:06.982Z,23.33
2023-05-04T09:36:06.844Z,23.30
2023-05-04T09:37:07.426Z,23.32
2023-05-04T09:38:06.909Z,23.26
2023-05-04T09:39:07.202Z,23.29
2023-05-04T09:40:06.981Z,23.28
2023-05-04T09:41:07.008Z,23.28
2023-05-04T09:42:07.047Z,23.26
2023-05-04T09:43:07.105Z,23.23
2023-05-04T09:44:07.094Z,23.26
2023-05-04T09:45:07.295Z,23.23
2023-05-04T09:46:07.956Z,23.23
2023-05-04T09:47:07.207Z,23.22
2023-05-04T09:48:07.214Z,23.21
2023-05-04T09:49:07.281Z,23.21
2023-05-04T09:50:07.272Z,23.19
2023-05-04T09:51:07.329Z,23.18
2023-05-04T09:52:07.367Z,23.19
2023-05-04T09:53:07.368Z,23.21
2023-05-04T09:54:07.400Z,23.19
2023-05-04T09:55:07.443Z,23.18
2023-05-04T09:56:08.383Z,23.15
2023-05-04T09:57:07.934Z,23.16
2023-05-04T09:58:07.522Z,23.15
2023-05-04T09:59:07.547Z,23.12
2023-05-04T10:00:07.591Z,23.15
2023-05-04T10:01:07.631Z,23.15
2023-05-04T10:02:18.776Z,23.12
2023-05-04T10:03:08.721Z,23.14
2023-05-04T10:04:07.690Z,23.14
2023-05-04T10:05:08.017Z,23.14
2023-05-04T10:06:07.744Z,23.12
2023-05-04T10:07:07.772Z,23.12
2023-05-04T10:08:07.798Z,23.14
2023-05-04T10:09:07.808Z,23.11
2023-05-04T10:10:07.833Z,23.15
2023-05-04T10:11:07.856Z,23.11
2023-05-04T10:12:07.881Z,23.11
2023-05-04T10:13:07.970Z,23.12
2023-05-04T10:14:08.933Z,23.09
2023-05-04T10:15:07.971Z,23.09
2023-05-04T10:16:08.069Z,23.09
2023-05-04T10:17:08.018Z,23.08
2023-05-04T10:18:08.048Z,23.11
2023-05-04T10:19:08.077Z,23.09
2023-05-04T10:20:08.125Z,23.07
2023-05-04T10:21:08.148Z,23.11
2023-05-04T10:22:08.156Z,23.09
2023-05-04T10:23:08.190Z,23.09
2023-05-04T10:24:08.214Z,23.08
2023-05-04T10:25:08.240Z,23.07
2023-05-04T10:26:08.271Z,23.05
2023-05-04T10:27:08.296Z,23.08
2023-05-04T10:28:08.329Z,23.07
2023-05-04T10:29:08.353Z,23.04
2023-05-04T10:30:08.382Z,23.05
2023-05-04T10:31:08.410Z,23.07
2023-05-04T10:32:08.491Z,23.05
2023-05-04T10:33:08.508Z,23.02
2023-05-04T10:34:08.510Z,23.07
2023-05-04T10:35:08.567Z,23.05
2023-05-04T10:36:08.578Z,23.04
2023-05-04T10:37:08.592Z,23.04
2023-05-04T10:38:08.611Z,23.04
2023-05-04T10:39:08.625Z,23.05
2023-05-04T10:40:08.712Z,23.05
2023-05-04T10:41:08.703Z,23.02
2023-05-04T10:42:08.761Z,23.02
2023-05-04T10:43:08.750Z,23.02
2023-05-04T10:44:08.851Z,23.01
2023-05-04T10:45:08.791Z,23.02
2023-05-04T10:46:08.888Z,23.04
2023-05-04T10:47:08.848Z,23.01
2023-05-04T10:48:08.969Z,23.04
2023-05-04T10:49:08.903Z,23.02
2023-05-04T10:50:08.952Z,23.01
2023-05-04T10:51:08.969Z,23.02
2023-05-04T10:52:09.012Z,23.01
2023-05-04T10:53:09.037Z,23.01
2023-05-04T10:54:09.060Z,23.02
2023-05-04T10:55:09.108Z,23.02
2023-05-04T10:56:09.146Z,22.99
2023-05-04T10:57:09.229Z,22.99
2023-05-04T10:58:09.234Z,23.01
2023-05-04T10:59:09.241Z,23.02
2023-05-04T11:00:09.368Z,23.02
2023-05-04T11:01:09.520Z,23.02
2023-05-04T11:02:09.423Z,23.01
2023-05-04T11:03:09.570Z,23.02
2023-05-04T11:04:09.436Z,23.01
2023-05-04T11:05:09.460Z,23.04
2023-05-04T11:06:09.493Z,23.01
2023-05-04T11:07:09.526Z,23.04
2023-05-04T11:08:09.637Z,23.05
2023-05-04T11:09:09.587Z,23.05
2023-05-04T11:10:09.703Z,23.04
2023-05-04T11:11:09.644Z,23.04
2023-05-04T11:12:09.669Z,23.05
2023-05-04T11:13:09.721Z,23.08
2023-05-04T11:14:09.731Z,23.07
2023-05-04T11:15:09.782Z,23.09
2023-05-04T11:16:09.903Z,23.07
2023-05-04T11:17:26.548Z,23.08
2023-05-04T11:18:11.003Z,23.09
2023-05-04T11:19:10.008Z,23.09
2023-05-04T11:20:10.080Z,23.07
2023-05-04T11:21:10.113Z,23.09
2023-05-04T11:22:10.114Z,23.09
2023-05-04T11:23:10.154Z,23.11
2023-05-04T11:24:10.185Z,23.11
2023-05-04T11:25:10.205Z,23.11
2023-05-04T11:26:10.263Z,23.11
2023-05-04T11:27:10.319Z,23.11
2023-05-04T11:28:10.400Z,23.12
2023-05-04T11:29:10.385Z,23.15
2023-05-04T11:30:10.405Z,23.14
2023-05-04T11:31:10.449Z,23.14
2023-05-04T11:32:10.449Z,23.15
2023-05-04T11:33:10.530Z,23.15
2023-05-04T11:34:10.493Z,23.12
2023-05-04T11:35:10.515Z,23.15
2023-05-04T11:36:10.545Z,23.15
2023-05-04T11:37:10.557Z,23.14
2023-05-04T11:38:10.641Z,23.16
2023-05-04T11:39:10.610Z,23.18
2023-05-04T11:40:10.655Z,23.16
2023-05-04T11:41:10.659Z,23.18
2023-05-04T11:42:10.677Z,23.15
2023-05-04T11:43:10.713Z,23.15
2023-05-04T11:44:10.965Z,23.18
2023-05-04T11:45:10.756Z,23.15
2023-05-04T11:46:10.831Z,23.18
2023-05-04T11:47:10.809Z,23.16
2023-05-04T11:48:11.503Z,23.19
2023-05-04T11:49:10.869Z,23.16
2023-05-04T11:50:10.883Z,23.18
2023-05-04T11:51:10.911Z,23.18
2023-05-04T11:52:10.951Z,23.19
2023-05-04T11:53:11.025Z,23.21
2023-05-04T11:54:11.106Z,23.19
2023-05-04T11:55:11.193Z,23.18
2023-05-04T11:56:11.292Z,23.19
2023-05-04T11:57:11.373Z,23.19
2023-05-04T11:58:11.476Z,23.19
2023-05-04T11:59:11.558Z,23.19
2023-05-04T12:00:11.701Z,23.21
2023-05-04T12:01:11.733Z,23.21
2023-05-04T12:02:11.840Z,23.22
2023-05-04T12:03:12.082Z,23.21
2023-05-04T12:04:12.038Z,23.22
2023-05-04T12:05:12.142Z,23.22
2023-05-04T12:06:12.157Z,23.25
2023-05-04T12:07:12.233Z,23.23
2023-05-04T12:08:12.589Z,23.26
2023-05-04T12:09:12.414Z,23.28
2023-05-04T12:10:12.525Z,23.28
2023-05-04T12:11:12.554Z,23.25
2023-05-04T12:12:12.642Z,23.25
2023-05-04T12:13:12.883Z,23.25
2023-05-04T12:14:12.778Z,23.29
2023-05-04T12:15:12.852Z,23.29
2023-05-04T12:16:12.982Z,23.30
2023-05-04T12:17:13.002Z,23.29
2023-05-04T12:18:13.074Z,23.30
2023-05-04T12:19:13.485Z,23.30
2023-05-04T12:20:13.315Z,23.30
2023-05-04T12:21:13.305Z,23.33
2023-05-04T12:22:13.370Z,23.32
2023-05-04T12:23:13.470Z,23.33
2023-05-04T12:24:13.526Z,23.36
2023-05-04T12:25:13.580Z,23.38
2023-05-04T12:26:13.664Z,23.35
2023-05-04T12:27:13.724Z,23.38
2023-05-04T12:28:13.788Z,23.35
2023-05-04T12:29:13.872Z,23.36
2023-05-04T12:30:13.939Z,23.39
2023-05-04T12:31:14.021Z,23.41
2023-05-04T12:32:14.144Z,23.42
2023-05-04T12:33:14.147Z,23.41
2023-05-04T12:34:14.227Z,23.42
2023-05-04T12:35:14.301Z,23.41
2023-05-04T12:36:14.337Z,23.41
2023-05-04T12:37:14.418Z,23.42
2023-05-04T12:38:14.487Z,23.46
2023-05-04T12:39:14.554Z,23.46
2023-05-04T12:40:27.766Z,23.45
2023-05-04T12:41:15.605Z,23.45
2023-05-04T12:42:14.675Z,23.46
2023-05-04T12:43:14.647Z,23.49
2023-05-04T12:44:14.644Z,23.55
2023-05-04T12:45:14.668Z,23.52
2023-05-04T12:46:14.737Z,23.50
2023-05-04T12:47:14.702Z,23.55
2023-05-04T12:48:14.716Z,23.53
2023-05-04T12:49:14.743Z,23.55
2023-05-04T12:50:14.751Z,23.56
2023-05-04T12:51:14.842Z,23.56
2023-05-04T12:52:14.819Z,23.59
2023-05-04T12:53:14.800Z,23.60